Time;durP1;ratioP1;P1;durP2;ratioP2;P2;SDS_P1;SDS_P2;PMS_P1;PMS_P2;Temp;Humidity;BMP_temperature;BMP_pressure;BME280_temperature;BME280_humidity;BME280_pressure;Samples;Min_cycle;Max_cycle;Signal;HPM_P1;HPM_P2
2023/08/03 00:00:59;;;;;;;3.28;1.30;;;;;;;14.53;98.31;99084.88;4884527;29;20036;-80
2023/08/03 00:03:24;;;;;;;;;;;;;;;14.53;98.45;99080.28;4889073;29;20075;-81
2023/08/03 00:05:50;;;;;;;2.47;1.70;;;;;;;14.52;97.98;99081.41;4886409;29;19931;-80
2023/08/03 00:08:16;;;;;;;4.72;1.50;;;;;;;14.53;98.37;99091.06;4885454;29;20184;-79
2023/08/03 00:10:41;;;;;;;5.75;1.70;;;;;;;14.55;98.49;99085.31;4902944;29;20033;-80
2023/08/03 00:13:07;;;;;;;3.17;1.17;;;;;;;14.54;98.48;99087.25;4886809;29;20642;-80
2023/08/03 00:15:32;;;;;;;4.72;2.10;;;;;;;14.57;98.34;99077.72;4884864;29;20029;-77
2023/08/03 00:17:58;;;;;;;4.05;1.52;;;;;;;14.58;98.50;99087.38;4880769;29;20036;-79
2023/08/03 00:20:24;;;;;;;3.10;1.58;;;;;;;14.58;98.80;99088.16;4885301;29;20052;-80
2023/08/03 00:22:49;;;;;;;6.90;1.77;;;;;;;14.60;98.54;99093.19;4888148;29;20099;-82
2023/08/03 00:25:15;;;;;;;3.22;1.40;;;;;;;14.61;98.86;99087.47;4885461;29;20044;-81
2023/08/03 00:27:41;;;;;;;4.22;1.48;;;;;;;14.63;98.71;99095.19;4889903;29;20051;-79
2023/08/03 00:30:07;;;;;;;;;;;;;;;14.64;98.86;99086.03;4887990;29;20042;-77
2023/08/03 00:32:32;;;;;;;4.45;1.70;;;;;;;14.65;99.35;99095.69;4886162;29;19920;-80
2023/08/03 00:34:58;;;;;;;5.63;2.22;;;;;;;14.66;98.98;99086.47;4870844;29;20056;-80
2023/08/03 00:37:24;;;;;;;3.10;1.52;;;;;;;14.67;99.04;99079.94;4902751;29;20071;-79
2023/08/03 00:39:49;;;;;;;4.20;2.08;;;;;;;14.70;99.12;99082.78;4884889;29;20033;-78
2023/08/03 00:42:15;;;;;;;;;;;;;;;14.75;99.35;99079.03;4890306;29;20108;-82
2023/08/03 00:44:41;;;;;;;4.30;1.23;;;;;;;14.75;99.52;99081.75;4889281;29;19998;-81
2023/08/03 00:47:06;;;;;;;;;;;;;;;14.78;99.62;99074.91;4901567;29;20391;-81
2023/08/03 00:49:32;;;;;;;8.35;2.33;;;;;;;14.80;99.65;99076.13;4904714;29;19967;-79
2023/08/03 00:51:59;;;;;;;;;;;;;;;14.81;99.58;99075.00;4888433;29;20049;-81
2023/08/03 00:54:26;;;;;;;2.00;1.13;;;;;;;14.85;99.91;99070.53;4888499;29;19920;-83
2023/08/03 00:56:53;;;;;;;;;;;;;;;14.86;99.90;99061.31;4882762;29;20053;-83
2023/08/03 00:59:18;;;;;;;3.05;1.50;;;;;;;14.88;99.71;99066.34;4889375;29;20066;-82
2023/08/03 01:01:44;;;;;;;;;;;;;;;14.89;99.96;99067.91;4872005;29;20538;-81
2023/08/03 01:04:10;;;;;;;3.60;2.40;;;;;;;14.92;100.00;99059.16;4900386;29;19926;-79
2023/08/03 01:06:36;;;;;;;5.07;2.10;;;;;;;14.93;100.00;99058.81;4885679;29;20044;-77
2023/08/03 01:09:04;;;;;;;;;;;;;;;14.96;100.00;99050.06;4882689;29;20056;-79
2023/08/03 01:11:30;;;;;;;3.08;1.70;;;;;;;14.98;100.00;99055.13;4887658;29;19916;-78
2023/08/03 01:13:56;;;;;;;;;;;;;;;15.01;100.00;99052.53;4871576;29;20056;-78
2023/08/03 01:16:23;;;;;;;4.63;2.22;;;;;;;15.01;100.00;99036.34;4899168;29;19919;-78
2023/08/03 01:18:50;;;;;;;3.80;2.42;;;;;;;15.03;100.00;99050.25;4871239;29;20041;-77
2023/08/03 01:21:18;;;;;;;3.50;2.20;;;;;;;15.07;100.00;99052.28;4904696;29;20496;-79
2023/08/03 01:23:45;;;;;;;6.22;2.25;;;;;;;15.05;100.00;99047.25;4887010;29;20041;-77
2023/08/03 01:26:11;;;;;;;5.15;2.30;;;;;;;15.08;100.00;99048.47;4893605;29;20092;-78
2023/08/03 01:28:37;;;;;;;;;;;;;;;15.11;100.00;99053.19;4904988;29;20033;-77
2023/08/03 01:31:03;;;;;;;4.57;2.63;;;;;;;15.11;100.00;99053.19;4903646;29;20005;-77
2023/08/03 01:33:29;;;;;;;7.18;2.10;;;;;;;15.12;100.00;99052.84;4888073;29;20036;-76
2023/08/03 01:35:55;;;;;;;;;;;;;;;15.12;100.00;99052.06;4876061;29;20075;-80
2023/08/03 01:38:20;;;;;;;6.18;1.90;;;;;;;15.13;100.00;99043.63;4902448;29;20030;-78
2023/08/03 01:40:46;;;;;;;3.80;2.20;;;;;;;15.15;100.00;99045.97;4904519;29;20490;-77
2023/08/03 01:43:12;;;;;;;;;;;;;;;15.16;100.00;99039.44;4899353;29;20040;-79
2023/08/03 01:45:38;;;;;;;5.25;1.98;;;;;;;15.15;100.00;99038.66;4871928;29;20338;-81
2023/08/03 01:48:03;;;;;;;;;;;;;;;15.13;100.00;99038.25;4888254;29;20427;-84
2023/08/03 01:50:29;;;;;;;6.38;1.83;;;;;;;15.13;99.99;99043.63;4888955;29;19920;-84
2023/08/03 01:52:55;;;;;;;6.07;2.20;;;;;;;15.12;100.00;99025.09;4910710;29;20080;-83
2023/08/03 01:55:20;;;;;;;6.13;1.80;;;;;;;15.14;100.00;99028.22;4889156;29;20052;-79
2023/08/03 01:57:48;;;;;;;2.88;1.50;;;;;;;15.14;100.00;99030.94;4892713;29;20043;-82
2023/08/03 02:00:14;;;;;;;6.57;2.22;;;;;;;15.14;100.00;99029.00;4896683;29;20039;-85
2023/08/03 02:02:40;;;;;;;4.07;2.25;;;;;;;15.15;99.95;99024.41;4893795;29;20041;-83
2023/08/03 02:05:06;;;;;;;;;;;;;;;15.16;100.00;99017.88;4880547;29;20044;-81
2023/08/03 02:07:46;;;;;;;3.88;1.70;;;;;;;15.17;99.90;99017.56;4892407;29;19943;-83
2023/08/03 02:10:14;;;;;;;7.30;2.20;;;;;;;15.17;99.98;99016.75;4894183;29;20032;-83
2023/08/03 02:12:39;;;;;;;8.70;2.33;;;;;;;15.17;99.96;99011.38;4876299;29;20048;-82
2023/08/03 02:15:06;;;;;;;;;;;;;;;15.16;99.86;99009.78;4890935;29;20494;-81
2023/08/03 02:17:32;;;;;;;3.72;1.95;;;;;;;15.16;99.83;99009.78;4858666;29;20537;-80
2023/08/03 02:19:59;;;;;;;5.25;2.05;;;;;;;15.15;99.75;99002.84;4886814;29;20033;-81
2023/08/03 02:22:25;;;;;;;4.53;2.10;;;;;;;15.17;99.74;99008.66;4873996;29;20055;-80
2023/08/03 02:24:50;;;;;;;;;;;;;;;15.17;99.84;99006.78;4874778;29;20032;-81
2023/08/03 02:27:16;;;;;;;4.90;1.95;;;;;;;15.17;99.58;99005.97;4890272;29;19919;-81
2023/08/03 02:29:41;;;;;;;;;;;;;;;15.16;99.48;98999.78;4904941;29;20025;-82
2023/08/03 02:32:08;;;;;;;6.00;2.50;;;;;;;15.15;99.46;98998.22;4877703;29;19931;-78
2023/08/03 02:34:36;;;;;;;6.22;1.85;;;;;;;15.16;99.46;98994.41;4891192;29;20494;-81
2023/08/03 02:37:02;;;;;;;6.55;2.63;;;;;;;15.17;99.49;99000.56;4890751;29;20032;-81
2023/08/03 02:39:29;;;;;;;;;;;;;;;15.17;99.64;99001.38;4904360;29;20039;-83
2023/08/03 02:41:56;;;;;;;3.70;2.30;;;;;;;15.18;99.43;99007.56;4904665;29;19922;-82
2023/08/03 02:44:26;;;;;;;4.90;1.90;;;;;;;15.18;99.44;98999.47;4891252;29;20037;-81
2023/08/03 02:46:53;;;;;;;7.93;2.13;;;;;;;15.19;99.52;99003.72;4874859;29;20060;-80
2023/08/03 02:49:19;;;;;;;5.25;1.80;;;;;;;15.19;99.54;98998.34;4890456;29;20037;-80
2023/08/03 02:51:46;;;;;;;4.55;1.60;;;;;;;15.21;99.71;99006.88;4876779;29;20084;-81
2023/08/03 02:54:13;;;;;;;6.10;2.05;;;;;;;15.23;99.78;99001.91;4905615;29;20045;-82
2023/08/03 02:56:44;;;;;;;5.95;2.00;;;;;;;15.23;99.94;99004.59;4891800;29;20036;-79
2023/08/03 02:59:10;;;;;;;;;;;;;;;15.24;99.64;98995.38;4893754;29;20036;-81
2023/08/03 03:01:42;;;;;;;5.50;4.15;;;;;;;15.23;100.00;98994.59;4888022;23;19907;-74
2023/08/03 03:04:08;;;;;;;;;;;;;;;15.25;99.92;98991.59;4886806;29;20044;-75
2023/08/03 03:06:38;;;;;;;5.63;1.52;;;;;;;15.24;100.00;98985.41;4897460;29;20029;-74
2023/08/03 03:09:06;;;;;;;6.40;2.08;;;;;;;15.24;100.00;98990.81;4890105;29;20092;-76
2023/08/03 03:11:34;;;;;;;3.25;1.40;;;;;;;15.26;99.96;98987.75;4875241;29;20043;-77
2023/08/03 03:14:00;;;;;;;5.22;1.90;;;;;;;15.25;100.00;98986.19;4890535;29;20042;-77
2023/08/03 03:16:27;;;;;;;3.92;1.70;;;;;;;15.25;99.73;98980.78;4889702;29;20132;-76
2023/08/03 03:18:54;;;;;;;4.03;2.03;;;;;;;15.25;100.00;98978.09;4876997;29;20044;-75
2023/08/03 03:21:20;;;;;;;;;;;;;;;15.27;99.88;98986.63;4897032;29;20160;-75
2023/08/03 03:23:47;;;;;;;3.10;1.35;;;;;;;15.27;99.69;98982.00;4913931;29;19970;-75
2023/08/03 03:26:13;;;;;;;5.43;1.50;;;;;;;15.29;99.93;98970.88;4898786;29;20069;-74
2023/08/03 03:28:39;;;;;;;;;;;;;;;15.29;99.32;98970.88;4909740;29;20036;-76
2023/08/03 03:31:05;;;;;;;4.97;1.85;;;;;;;15.29;99.66;98976.25;4910120;29;19962;-77
2023/08/03 03:33:31;;;;;;;;;;;;;;;15.29;99.54;98962.78;4895843;29;20076;-73
2023/08/03 03:36:06;;;;;;;7.35;1.98;;;;;;;15.29;99.69;98960.09;4911052;29;19914;-75
2023/08/03 03:38:32;;;;;;;5.95;1.83;;;;;;;15.28;99.16;98956.59;4892171;29;20040;-74
2023/08/03 03:40:58;;;;;;;4.88;1.75;;;;;;;15.27;99.05;98957.75;4893326;29;20043;-75
2023/08/03 03:43:24;;;;;;;;;;;;;;;15.31;99.21;98963.25;4891797;29;20063;-75
2023/08/03 03:45:50;;;;;;;5.55;1.70;;;;;;;15.30;99.43;98956.25;4891193;29;19915;-75
2023/08/03 03:48:17;;;;;;;3.90;1.80;;;;;;;15.31;98.64;98955.16;4877977;29;20402;-72
2023/08/03 03:50:44;;;;;;;3.55;1.40;;;;;;;15.31;98.61;98952.47;4909319;29;20036;-75
2023/08/03 03:53:09;;;;;;;3.45;1.48;;;;;;;15.33;98.43;98950.19;4911402;29;20031;-77
2023/08/03 03:55:39;;;;;;;4.43;1.25;;;;;;;15.36;98.24;98951.41;4907207;29;20036;-75
2023/08/03 03:58:06;;;;;;;;;;;;;;;15.37;98.08;98955.66;4876202;29;20509;-77
2023/08/03 04:00:39;;;;;;;3.17;1.27;;;;;;;15.37;98.45;98945.66;4914077;29;20010;-76
2023/08/03 04:03:07;;;;;;;3.85;2.08;;;;;;;15.37;98.33;98951.06;4895596;29;20537;-74
2023/08/03 04:05:34;;;;;;;3.22;1.33;;;;;;;15.36;97.93;98938.69;4908822;29;20050;-74
2023/08/03 04:08:01;;;;;;;4.05;2.03;;;;;;;15.40;98.21;98941.50;4922247;29;20040;-75
2023/08/03 04:10:28;;;;;;;3.85;1.30;;;;;;;15.38;97.52;98944.56;4891070;29;20036;-73
2023/08/03 04:12:55;;;;;;;4.38;1.40;;;;;;;15.42;97.78;98948.13;4894385;29;20072;-72
2023/08/03 04:15:22;;;;;;;4.97;1.60;;;;;;;15.44;97.50;98940.44;4884868;29;20593;-74
2023/08/03 04:17:49;;;;;;;4.57;1.88;;;;;;;15.47;97.68;98945.16;4905035;29;20518;-74
2023/08/03 04:20:18;;;;;;;6.53;1.80;;;;;;;15.49;97.66;98942.91;4907021;29;20040;-76
2023/08/03 04:22:45;;;;;;;3.13;1.20;;;;;;;15.50;98.00;98939.06;4907553;29;20735;-77
2023/08/03 04:25:13;;;;;;;5.70;1.70;;;;;;;15.45;97.90;98933.94;4904307;29;20118;-77
2023/08/03 04:27:42;;;;;;;3.47;1.45;;;;;;;15.47;97.88;98939.78;4888407;29;20040;-76
2023/08/03 04:30:13;;;;;;;3.88;1.90;;;;;;;15.47;98.13;98939.00;4886443;29;20036;-74
2023/08/03 04:32:41;;;;;;;4.68;1.38;;;;;;;15.43;97.53;98938.09;4890167;29;20035;-75
2023/08/03 04:35:09;;;;;;;3.22;1.77;;;;;;;15.44;97.63;98936.97;4902487;29;20051;-74
2023/08/03 04:37:38;;;;;;;3.47;1.20;;;;;;;15.46;97.77;98940.91;4889605;29;20039;-74
2023/08/03 04:40:07;;;;;;;3.60;1.88;;;;;;;15.46;98.07;98942.81;4887292;29;20051;-74
2023/08/03 04:42:34;;;;;;;4.80;1.50;;;;;;;15.46;97.84;98940.91;4875503;29;20036;-75
2023/08/03 04:45:00;;;;;;;7.43;2.10;;;;;;;15.45;98.31;98939.34;4881566;29;20046;-73
2023/08/03 04:47:26;;;;;;;5.90;1.67;;;;;;;15.44;98.21;98935.06;4887502;29;20058;-74
2023/08/03 04:49:55;;;;;;;3.38;1.20;;;;;;;15.43;98.23;98933.50;4912504;29;20039;-75
2023/08/03 04:52:21;;;;;;;4.47;1.60;;;;;;;15.42;98.23;98941.94;4906180;29;20736;-75
2023/08/03 04:54:46;;;;;;;5.20;1.38;;;;;;;15.42;98.48;98944.63;4910194;29;20036;-74
2023/08/03 04:57:13;;;;;;;6.20;2.08;;;;;;;15.40;98.65;98944.97;4882281;29;20104;-74
2023/08/03 04:59:39;;;;;;;4.20;1.45;;;;;;;15.39;98.92;98948.03;4927033;29;20043;-75
2023/08/03 05:02:06;;;;;;;4.47;1.83;;;;;;;15.38;99.18;98939.16;4908019;29;20072;-76
2023/08/03 05:04:32;;;;;;;3.05;1.33;;;;;;;15.38;99.38;98936.47;4891927;29;20044;-76
2023/08/03 05:06:58;;;;;;;6.95;1.52;;;;;;;15.38;99.40;98935.69;4881663;29;20537;-74
2023/08/03 05:09:24;;;;;;;;;;;;;;;15.36;99.46;98938.69;4891294;29;20036;-75
2023/08/03 05:11:49;;;;;;;3.60;1.38;;;;;;;15.35;99.53;98931.75;4895155;29;19926;-75
2023/08/03 05:14:15;;;;;;;;;;;;;;;15.36;99.74;98933.31;4908606;29;20573;-78
2023/08/03 05:16:41;;;;;;;3.65;1.30;;;;;;;15.36;99.80;98936.00;4878936;29;19947;-74
2023/08/03 05:19:06;;;;;;;;;;;;;;;15.34;99.74;98935.56;4924463;29;20040;-76
2023/08/03 05:21:33;;;;;;;2.97;1.05;;;;;;;15.35;99.82;98947.94;4883103;29;19926;-75
2023/08/03 05:23:58;;;;;;;;;;;;;;;15.37;99.91;98940.25;4898858;29;21028;-75
2023/08/03 05:26:23;;;;;;;2.67;1.17;;;;;;;15.38;100.00;98949.94;4892917;29;19975;-74
2023/08/03 05:28:49;;;;;;;4.90;1.33;;;;;;;15.39;100.00;98954.22;4908098;29;20409;-76
2023/08/03 05:31:15;;;;;;;;;;;;;;;15.40;100.00;98947.69;4907403;29;20048;-74
2023/08/03 05:33:40;;;;;;;5.32;1.58;;;;;;;15.42;100.00;98945.41;4923584;29;19975;-75
2023/08/03 05:36:08;;;;;;;;;;;;;;;15.45;100.00;98946.66;4890919;29;20048;-75
2023/08/03 05:38:33;;;;;;;4.35;1.23;;;;;;;15.47;100.00;98952.47;4899949;29;19918;-74
2023/08/03 05:40:59;;;;;;;4.93;1.65;;;;;;;15.47;100.00;98961.34;4893475;29;20098;-74
2023/08/03 05:43:26;;;;;;;;;;;;;;;15.50;100.00;98951.78;4890009;29;20051;-73
2023/08/03 05:46:02;;;;;;;3.88;1.25;;;;;;;15.51;100.00;98951.47;4893944;29;19934;-75
2023/08/03 05:48:29;;;;;;;4.63;1.38;;;;;;;15.51;100.00;98956.84;4908897;29;20043;-75
2023/08/03 05:50:56;;;;;;;7.32;1.10;;;;;;;15.52;100.00;98961.13;4883953;29;20040;-74
2023/08/03 05:53:22;;;;;;;2.55;1.50;;;;;;;15.56;100.00;98958.50;4909380;29;20040;-73
2023/08/03 05:55:48;;;;;;;;;;;;;;;15.57;100.00;98965.44;4890050;29;20036;-72
2023/08/03 05:58:15;;;;;;;2.92;1.52;;;;;;;15.55;100.00;98952.31;4890571;29;19919;-72
2023/08/03 06:00:42;;;;;;;3.05;1.30;;;;;;;15.58;100.00;98961.66;4911186;29;20037;-73
2023/08/03 06:03:13;;;;;;;2.28;1.40;;;;;;;15.59;100.00;98951.63;4891892;29;20585;-73
2023/08/03 06:05:38;;;;;;;1.40;0.85;;;;;;;15.60;100.00;98962.09;4907596;29;21326;-75
2023/08/03 06:08:15;;;;;;;2.65;1.08;;;;;;;15.61;100.00;98958.25;4906952;29;20040;-73
2023/08/03 06:10:42;;;;;;;3.33;1.08;;;;;;;15.63;100.00;98958.72;4897216;29;20028;-73
2023/08/03 06:13:11;;;;;;;2.28;1.42;;;;;;;15.69;100.00;98968.13;4904663;29;20040;-74
2023/08/03 06:15:37;;;;;;;3.80;1.20;;;;;;;15.69;100.00;98972.72;4891752;29;20035;-74
2023/08/03 06:18:08;;;;;;;4.80;0.95;;;;;;;15.73;100.00;98973.63;4908666;29;20044;-72
2023/08/03 06:20:34;;;;;;;2.25;0.95;;;;;;;15.74;100.00;98980.59;4906727;29;20032;-72
2023/08/03 06:23:03;;;;;;;2.03;1.10;;;;;;;15.76;100.00;98986.41;4908169;29;20043;-74
2023/08/03 06:25:29;;;;;;;2.38;1.00;;;;;;;15.76;100.00;98981.00;4904500;29;20032;-74
2023/08/03 06:27:57;;;;;;;2.30;0.90;;;;;;;15.75;100.00;98982.16;4893909;29;20040;-73
2023/08/03 06:30:23;;;;;;;3.25;1.58;;;;;;;15.82;100.00;98979.63;4904687;29;20041;-73
2023/08/03 06:32:50;;;;;;;3.28;0.90;;;;;;;15.86;100.00;98983.22;4889778;29;20047;-72
2023/08/03 06:35:34;;;;;;;;;;;;;;;15.93;100.00;98988.00;4905449;29;20048;-73
2023/08/03 06:38:01;;;;;;;3.22;1.10;;;;;;;16.00;100.00;98996.28;4897737;29;19942;-75
2023/08/03 06:40:28;;;;;;;1.20;0.90;;;;;;;16.01;100.00;98995.94;4906510;29;20083;-73
2023/08/03 06:42:53;;;;;;;;;;;;;;;16.01;100.00;98995.94;4890815;29;20032;-73
2023/08/03 06:45:19;;;;;;;1.90;1.13;;;;;;;16.03;100.00;99003.69;4910293;29;19943;-74
2023/08/03 06:47:45;;;;;;;;;;;;;;;16.07;100.00;99009.97;4911743;29;20072;-72
2023/08/03 06:50:11;;;;;;;1.90;1.20;;;;;;;16.06;100.00;99005.69;4924663;29;20001;-72
2023/08/03 06:52:37;;;;;;;2.20;0.75;;;;;;;16.01;100.00;99012.13;4879417;29;20526;-76
2023/08/03 06:55:03;;;;;;;;;;;;;;;16.00;100.00;99007.88;4893323;29;20151;-74
2023/08/03 06:57:28;;;;;;;2.17;0.80;;;;;;;16.00;100.00;99010.56;4873669;29;19969;-75
2023/08/03 06:59:55;;;;;;;;;;;;;;;16.01;100.00;99012.13;4909998;29;20087;-74
2023/08/03 07:02:22;;;;;;;1.30;1.15;;;;;;;16.03;100.00;99015.25;4890813;29;19918;-73
2023/08/03 07:04:47;;;;;;;3.40;0.90;;;;;;;16.09;100.00;99013.88;4907906;29;20064;-72
2023/08/03 07:07:14;;;;;;;;;;;;;;;16.16;100.00;99017.88;4887432;29;20063;-73
2023/08/03 07:09:40;;;;;;;1.05;0.80;;;;;;;16.14;100.00;99014.75;4908054;29;19919;-76
2023/08/03 07:12:09;;;;;;;;;;;;;;;16.14;100.00;99020.94;4879328;29;20394;-73
2023/08/03 07:14:35;;;;;;;2.28;1.00;;;;;;;16.14;100.00;99020.94;4912774;29;19923;-74
2023/08/03 07:17:01;;;;;;;;;;;;;;;16.16;100.00;99028.69;4905956;29;20051;-75
2023/08/03 07:19:27;;;;;;;2.08;1.45;;;;;;;16.14;100.00;99029.03;4922978;29;19919;-77
2023/08/03 07:21:53;;;;;;;;;;;;;;;16.12;100.00;99028.59;4888269;29;20099;-75
2023/08/03 07:24:18;;;;;;;2.60;1.33;;;;;;;16.07;100.00;99024.25;4904362;29;20447;-78
2023/08/03 07:26:44;;;;;;;;;;;;;;;16.05;100.00;99029.22;4905588;29;20418;-75
2023/08/03 07:29:10;;;;;;;3.20;1.10;;;;;;;16.03;100.00;99034.16;4906470;29;19930;-75
2023/08/03 07:31:35;;;;;;;;;;;;;;;16.05;100.00;99044.59;4874024;29;20877;-76
2023/08/03 07:34:01;;;;;;;3.35;0.73;;;;;;;16.04;100.00;99043.81;4890284;29;19922;-77
2023/08/03 07:36:27;;;;;;;;;;;;;;;16.04;100.00;99051.94;4886601;29;20562;-77
2023/08/03 07:38:52;;;;;;;2.10;0.70;;;;;;;16.04;100.00;99051.16;4904374;29;19930;-76
2023/08/03 07:41:18;;;;;;;;;;;;;;;16.04;100.00;99053.84;4889641;29;20054;-76
2023/08/03 07:43:44;;;;;;;1.63;0.85;;;;;;;16.05;100.00;99060.81;4889623;29;19919;-76
2023/08/03 07:46:09;;;;;;;;;;;;;;;16.04;100.00;99054.63;4888509;29;20047;-75
2023/08/03 07:48:35;;;;;;;3.03;1.40;;;;;;;16.01;100.00;99049.16;4888615;29;19922;-74
2023/08/03 07:51:14;;;;;;;2.60;1.17;;;;;;;16.01;100.00;99055.34;4886435;29;20060;-75
2023/08/03 07:53:40;;;;;;;2.13;1.20;;;;;;;16.01;100.00;99055.34;4890537;29;21458;-75
2023/08/03 07:56:22;;;;;;;;;;;;;;;16.00;100.00;99059.16;4895889;29;20068;-75
2023/08/03 07:58:50;;;;;;;4.00;0.90;;;;;;;15.92;100.00;99067.41;4920626;29;20000;-77
2023/08/03 08:01:17;;;;;;;1.58;1.05;;;;;;;15.94;100.00;99068.66;4906277;29;20052;-74
2023/08/03 08:03:43;;;;;;;1.27;0.80;;;;;;;15.96;100.00;99074.47;4887741;29;20039;-74
2023/08/03 08:06:08;;;;;;;;;;;;;;;15.99;100.00;99081.13;4887873;29;20652;-75
2023/08/03 08:08:35;;;;;;;1.90;0.90;;;;;;;15.97;100.00;99086.84;4892309;29;20389;-75
2023/08/03 08:11:01;;;;;;;;;;;;;;;16.02;100.00;99086.59;4908838;29;20075;-72
2023/08/03 08:13:27;;;;;;;1.98;1.40;;;;;;;16.01;100.00;99098.53;4927437;29;19970;-75
2023/08/03 08:16:00;;;;;;;;;;;;;;;16.05;100.00;99098.63;4911567;29;20044;-76
2023/08/03 08:18:26;;;;;;;1.45;1.13;;;;;;;15.99;100.00;99091.91;4907317;29;19931;-75
2023/08/03 08:21:01;;;;;;;1.67;0.90;;;;;;;16.02;100.00;99100.09;4906532;29;20032;-77
2023/08/03 08:23:28;;;;;;;5.18;1.50;;;;;;;16.04;100.00;99108.63;4908284;29;20040;-75
2023/08/03 08:25:55;;;;;;;1.80;1.00;;;;;;;16.05;100.00;99109.41;4906313;29;20044;-76
2023/08/03 08:28:21;;;;;;;2.58;1.20;;;;;;;16.07;100.00;99107.97;4906422;29;20319;-76
2023/08/03 08:30:48;;;;;;;2.13;0.80;;;;;;;16.13;100.00;99116.59;4891701;29;20127;-75
2023/08/03 08:33:14;;;;;;;;;;;;;;;16.19;100.00;99120.63;4876751;29;20767;-75
2023/08/03 08:35:39;;;;;;;0.93;0.57;;;;;;;16.23;100.00;99126.88;4904459;29;19970;-75
2023/08/03 08:38:05;;;;;;;;;;;;;;;16.28;100.00;99131.25;4900818;29;20460;-74
2023/08/03 08:40:41;;;;;;;2.72;1.17;;;;;;;16.29;100.00;99130.13;4901592;29;19922;-74
2023/08/03 08:43:07;;;;;;;1.52;1.00;;;;;;;16.32;100.00;99134.81;4888189;29;20044;-72
2023/08/03 08:45:33;;;;;;;1.85;1.48;;;;;;;16.34;100.00;99137.97;4888470;29;20052;-74
2023/08/03 08:47:59;;;;;;;1.80;1.20;;;;;;;16.37;100.00;99148.06;4903221;29;20028;-76
2023/08/03 08:50:25;;;;;;;;;;;;;;;16.38;100.00;99138.84;4876511;29;20047;-74
2023/08/03 08:52:52;;;;;;;2.17;1.40;;;;;;;16.37;100.00;99148.06;4909523;29;19976;-74
2023/08/03 08:55:26;;;;;;;2.75;1.85;;;;;;;16.37;100.00;99154.25;4909920;29;20055;-74
2023/08/03 08:57:53;;;;;;;2.40;2.03;;;;;;;16.42;100.00;99155.94;4910344;29;20037;-73
2023/08/03 09:00:20;;;;;;;3.08;2.35;;;;;;;16.55;100.00;99154.72;4911863;29;20044;-73
2023/08/03 09:02:46;;;;;;;5.45;3.38;;;;;;;16.68;100.00;99160.06;4936964;23;20071;-73
2023/08/03 09:05:21;;;;;;;4.72;3.17;;;;;;;16.80;100.00;99155.38;4912286;29;20035;-73
2023/08/03 09:08:08;;;;;;;6.07;3.85;;;;;;;16.98;100.00;99163.91;4939196;29;20145;-73
2023/08/03 09:10:54;;;;;;;7.00;4.05;;;;;;;17.18;100.00;99167.47;4942044;29;20091;-73
2023/08/03 09:13:35;;;;;;;5.10;3.92;;;;;;;17.23;100.00;99169.91;4926868;29;20119;-73
2023/08/03 09:16:01;;;;;;;7.75;4.60;;;;;;;17.34;100.00;99176.34;4941584;28;20031;-72
2023/08/03 09:18:29;;;;;;;4.78;4.18;;;;;;;17.49;100.00;99174.75;4939724;29;20042;-72
2023/08/03 09:21:19;;;;;;;8.20;4.03;;;;;;;17.74;100.00;99172.56;4941978;28;20039;-72
2023/08/03 09:23:45;;;;;;;;;;;;;;;17.93;100.00;99174.50;4952784;28;20043;-74
2023/08/03 09:26:12;;;;;;;6.93;4.57;;;;;;;17.98;100.00;99168.81;4938618;28;19925;-73
2023/08/03 09:28:39;;;;;;;6.85;4.47;;;;;;;17.99;100.00;99170.38;4937850;29;21761;-73
2023/08/03 09:31:05;;;;;;;7.60;2.80;;;;;;;17.82;97.47;99177.03;4959555;28;20040;-73
2023/08/03 09:33:32;;;;;;;5.72;4.38;;;;;;;17.92;98.77;99186.50;4927473;29;20039;-72
2023/08/03 09:36:04;;;;;;;6.32;3.40;;;;;;;17.94;99.23;99195.03;4923826;29;20035;-73
2023/08/03 09:38:29;;;;;;;7.97;4.45;;;;;;;17.92;99.40;99191.91;4941614;29;20051;-72
2023/08/03 09:40:55;;;;;;;5.13;3.50;;;;;;;17.95;99.67;99192.00;4929127;29;20049;-72
2023/08/03 09:43:23;;;;;;;;;;;;;;;17.95;99.24;99191.19;4943847;29;20489;-73
2023/08/03 09:45:51;;;;;;;4.35;3.47;;;;;;;17.96;98.68;99195.47;4944001;29;19918;-72
2023/08/03 09:48:18;;;;;;;6.43;3.40;;;;;;;17.91;99.56;99195.75;4942295;29;20071;-73
2023/08/03 09:50:51;;;;;;;4.15;2.63;;;;;;;17.82;98.12;99197.91;4945708;28;20042;-72
2023/08/03 09:53:21;;;;;;;5.63;2.60;;;;;;;17.70;97.18;99210.38;4941971;29;20465;-74
2023/08/03 09:55:57;;;;;;;4.70;2.58;;;;;;;17.67;98.14;99213.78;4943722;28;20047;-72
2023/08/03 09:58:48;;;;;;;6.10;3.55;;;;;;;17.61;97.67;99215.22;4914989;29;20039;-72
2023/08/03 10:01:20;;;;;;;3.20;2.45;;;;;;;17.55;97.68;99218.56;4942907;28;20031;-73
2023/08/03 10:03:56;;;;;;;5.80;2.92;;;;;;;17.51;98.74;99232.00;4946244;29;20046;-72
2023/08/03 10:06:26;;;;;;;3.58;2.67;;;;;;;17.52;98.96;99235.50;4958985;28;21059;-72
2023/08/03 10:08:56;;;;;;;4.78;2.90;;;;;;;17.53;99.02;99251.38;4945141;29;20493;-73
2023/08/03 10:11:28;;;;;;;4.53;3.53;;;;;;;17.45;99.10;99239.59;4944834;28;20039;-73
2023/08/03 10:13:58;;;;;;;6.85;4.35;;;;;;;17.34;98.87;99254.00;4928932;29;20058;-72
2023/08/03 10:16:24;;;;;;;5.57;4.35;;;;;;;17.27;98.85;99254.63;4944919;28;20154;-72
2023/08/03 10:18:51;;;;;;;7.07;4.47;;;;;;;17.23;99.55;99242.94;4946558;28;20035;-72
2023/08/03 10:21:17;;;;;;;4.53;4.00;;;;;;;17.18;99.51;99257.50;4946889;28;20051;-74
2023/08/03 10:24:12;;;;;;;4.93;3.03;;;;;;;17.02;98.07;99248.63;4947959;28;20027;-74
2023/08/03 10:26:38;;;;;;;4.75;3.40;;;;;;;16.97;98.19;99254.28;4961189;28;20035;-73
2023/08/03 10:29:05;;;;;;;3.83;2.55;;;;;;;16.85;98.06;99259.75;4943322;28;20047;-72
2023/08/03 10:31:31;;;;;;;3.85;2.75;;;;;;;16.86;98.85;99264.03;4941863;28;20043;-72
2023/08/03 10:33:57;;;;;;;2.50;2.20;;;;;;;16.84;98.92;99269.00;4945380;28;20046;-73
2023/08/03 10:36:26;;;;;;;3.20;2.35;;;;;;;16.81;98.87;99270.50;4943558;28;20039;-72
2023/08/03 10:39:21;;;;;;;3.03;1.83;;;;;;;16.77;98.81;99279.63;4941262;28;20043;-72
2023/08/03 10:41:50;;;;;;;2.72;2.00;;;;;;;16.74;99.13;99277.63;4903015;29;20058;-70
2023/08/03 10:44:20;;;;;;;5.10;2.20;;;;;;;16.72;99.13;99285.28;4928868;28;20039;-72
2023/08/03 10:46:53;;;;;;;2.45;2.00;;;;;;;16.71;99.43;99292.63;4940804;28;20043;-72
2023/08/03 10:49:18;;;;;;;5.25;2.65;;;;;;;16.69;99.87;99292.16;4926252;29;20039;-71
2023/08/03 10:51:48;;;;;;;4.40;2.63;;;;;;;16.70;100.00;99292.97;4942252;28;20039;-73
2023/08/03 10:54:17;;;;;;;6.28;2.70;;;;;;;16.69;100.00;99300.25;4924352;28;20035;-71
2023/08/03 10:57:03;;;;;;;5.18;3.53;;;;;;;16.74;100.00;99304.69;4955509;28;20089;-72
2023/08/03 10:59:28;;;;;;;5.18;3.40;;;;;;;16.79;100.00;99318.69;4925058;28;20035;-71
2023/08/03 11:01:54;;;;;;;;;;;;;;;16.88;100.00;99310.47;4944735;28;20035;-72
2023/08/03 11:04:23;;;;;;;4.35;2.90;;;;;;;16.94;100.00;99311.78;4940099;28;19935;-72
2023/08/03 11:06:53;;;;;;;5.97;4.38;;;;;;;17.10;100.00;99315.28;4939829;28;20039;-72
2023/08/03 11:09:20;;;;;;;4.28;3.28;;;;;;;17.22;100.00;99321.75;4927293;29;20035;-72
2023/08/03 11:11:46;;;;;;;4.03;3.63;;;;;;;17.32;100.00;99321.22;4944573;28;20034;-73
2023/08/03 11:14:14;;;;;;;5.50;3.28;;;;;;;17.34;100.00;99325.19;4938883;28;20031;-72
2023/08/03 11:16:41;;;;;;;4.32;3.63;;;;;;;17.41;100.00;99329.97;4937973;28;20552;-72
2023/08/03 11:19:07;;;;;;;3.65;3.10;;;;;;;17.44;100.00;99329.25;4924769;29;20039;-72
2023/08/03 11:21:32;;;;;;;;;;;;;;;17.40;99.78;99328.38;4928412;28;20042;-74
2023/08/03 11:23:58;;;;;;;3.17;2.60;;;;;;;17.59;100.00;99336.59;4944623;28;19918;-74
2023/08/03 11:26:24;;;;;;;4.05;2.78;;;;;;;17.73;100.00;99331.53;4937967;28;20402;-73
2023/08/03 11:28:50;;;;;;;;;;;;;;;17.84;98.91;99336.44;4945471;28;20043;-73
2023/08/03 11:31:21;;;;;;;4.25;3.17;;;;;;;18.14;100.00;99340.19;4941917;28;19922;-72
2023/08/03 11:33:53;;;;;;;3.95;3.10;;;;;;;18.47;100.00;99350.56;4942216;28;20079;-74
2023/08/03 11:36:20;;;;;;;3.72;2.72;;;;;;;18.79;100.00;99348.53;4939981;28;20043;-73
2023/08/03 11:38:46;;;;;;;4.10;2.33;;;;;;;18.78;96.92;99348.91;4924026;29;20078;-73
2023/08/03 11:41:16;;;;;;;3.38;2.50;;;;;;;18.88;98.69;99355.66;4943536;28;20031;-74
2023/08/03 11:43:43;;;;;;;4.47;3.22;;;;;;;19.05;98.81;99361.44;4922972;28;20050;-73
2023/08/03 11:46:09;;;;;;;4.75;3.08;;;;;;;19.17;99.42;99368.66;4938440;28;20171;-73